Time;durP1;ratioP1;P1;durP2;ratioP2;P2;SDS_P1;SDS_P2;PMS_P1;PMS_P2;Temp;Humidity;BMP_temperature;BMP_pressure;BME280_temperature;BME280_humidity;BME280_pressure;Samples;Min_cycle;Max_cycle;Signal;HPM_P1;HPM_P2
2023/12/28 00:00:31;;;;;;;;;;;;;;;5.33;100.00;99605.31;5033560;28;19963;-89
2023/12/28 00:03:02;;;;;;;;;;;;;;;5.33;100.00;99595.69;5032353;28;19925;-83
2023/12/28 00:05:30;;;;;;;;;;;;;;;5.34;100.00;99596.56;5022829;28;19971;-88
2023/12/28 00:07:57;;;;;;;;;;;;;;;5.32;100.00;99599.22;5029018;28;19987;-87
2023/12/28 00:10:29;;;;;;;;;;;;;;;5.28;100.00;99601.06;5033606;28;19987;-81
2023/12/28 00:12:54;;;;;;;;;;;;;;;5.26;100.00;99597.63;5032540;28;20271;-86
2023/12/28 00:15:20;;;;;;;;;;;;;;;5.19;100.00;99598.66;5032944;28;19921;-87
2023/12/28 00:17:45;;;;;;;;;;;;;;;5.23;100.00;99597.69;5033445;28;20017;-93
2023/12/28 00:20:11;;;;;;;;;;;;;;;5.25;100.00;99590.63;5033856;28;19921;-93
2023/12/28 00:22:37;;;;;;;;;;;;;;;5.19;100.00;99603.03;5013754;28;19921;-91
2023/12/28 00:25:03;;;;;;;;;;;;;;;5.21;100.00;99622.25;5031409;28;20335;-90
2023/12/28 00:27:28;;;;;;;;;;;;;;;5.22;100.00;99639.75;5033005;28;19913;-89
2023/12/28 00:29:53;;;;;;;;;;;;;;;5.31;100.00;99625.53;5023477;28;19917;-92
2023/12/28 00:32:18;;;;;;;;;;;;;;;5.25;100.00;99630.03;5036695;28;19925;-91
2023/12/28 00:34:43;;;;;;;;;;;;;;;5.34;100.00;99628.94;5034320;28;19964;-86
2023/12/28 00:37:09;;;;;;;;;;;;;;;5.33;100.00;99623.72;5031335;28;19933;-89
2023/12/28 00:39:35;;;;;;;;;;;;;;;5.30;100.00;99632.56;5014958;28;19926;-94
2023/12/28 00:42:00;;;;;;;;;;;;;;;5.28;100.00;99622.06;5031098;28;19921;-86
2023/12/28 00:44:25;;;;;;;;;;;;;;;5.34;100.00;99628.06;5031474;28;19921;-86
2023/12/28 00:46:51;;;;;;;;;;;;;;;5.29;100.00;99636.06;5015366;28;19921;-86
2023/12/28 00:49:16;;;;;;;;;;;;;;;5.42;100.00;99642.75;5014375;28;19921;-85
2023/12/28 00:51:41;;;;;;;;;;;;;;;5.48;100.00;99641.75;5013058;28;20012;-84
2023/12/28 00:54:06;;;;;;;;;;;;;;;5.39;100.00;99644.59;5032205;28;19964;-87
2023/12/28 00:56:32;;;;;;;;;;;;;;;5.38;100.00;99656.03;5022944;28;19921;-82
2023/12/28 00:58:57;;;;;;;;;;;;;;;5.40;100.00;99654.22;5022448;28;19913;-87
2023/12/28 01:01:22;;;;;;;;;;;;;;;5.43;100.00;99654.13;5014032;28;19921;-88
2023/12/28 01:03:47;;;;;;;;;;;;;;;5.39;100.00;99652.47;5032057;28;19921;-84
2023/12/28 01:06:13;;;;;;;;;;;;;;;5.45;100.00;99654.97;5030729;28;19913;-85
2023/12/28 01:08:38;;;;;;;;;;;;;;;5.42;100.00;99663.75;5032896;28;19932;-88
2023/12/28 01:11:03;;;;;;;;;;;;;;;5.43;100.00;99670.75;5031904;28;20403;-84
2023/12/28 01:13:29;;;;;;;;;;;;;;;5.45;100.00;99668.09;5031769;28;20000;-84
2023/12/28 01:15:54;;;;;;;;;;;;;;;5.51;100.00;99677.63;5031491;28;19921;-81
2023/12/28 01:18:19;;;;;;;;;;;;;;;5.53;100.00;99673.19;5031845;28;20417;-84
2023/12/28 01:20:50;;;;;;;;;;;;;;;5.50;100.00;99683.75;5004715;28;20416;-85
2023/12/28 01:23:16;;;;;;;;;;;;;;;5.52;100.00;99682.84;5030235;28;19921;-86
2023/12/28 01:25:41;;;;;;;;;;;;;;;6.06;100.00;99672.75;5030985;28;20430;-85
2023/12/28 01:28:06;;;;;;;;;;;;;;;5.72;100.00;99682.34;5031780;28;19921;-92
2023/12/28 01:30:31;;;;;;;;;;;;;;;5.64;100.00;99676.41;5031814;28;20377;-88
2023/12/28 01:32:56;;;;;;;;;;;;;;;5.65;100.00;99678.16;5031736;28;20529;-89
2023/12/28 01:35:22;;;;;;;;;;;;;;;5.67;100.00;99680.75;5031790;28;20384;-90
2023/12/28 09:01:06;;;;;;;;;;;;;;;5.54;100.00;99807.19;5773008;23;20475;-82
2023/12/28 09:03:31;;;;;;;;;;;;;;;5.42;100.00;99804.81;4954801;28;19973;-88
2023/12/28 09:05:57;;;;;;;;;;;;;;;5.41;100.00;99803.09;4956145;28;20013;-89
2023/12/28 09:08:22;;;;;;;;;;;;;;;5.34;100.00;99806.75;4978035;28;19918;-96
2023/12/28 09:10:47;;;;;;;;;;;;;;;5.40;100.00;99814.50;4977621;28;19930;-85
2023/12/28 09:13:16;;;;;;;;;;;;;;;5.41;100.00;99816.25;4971428;28;19924;-86
2023/12/28 09:15:42;;;;;;;;;;;;;;;6.91;100.00;99809.13;4971968;28;20464;-82
2023/12/28 09:18:07;;;;;;;;;;;;;;;10.21;100.00;99812.06;4975383;28;20021;-86
2023/12/28 09:20:35;;;;;;;;;;;;;;;8.83;100.00;99814.59;4973935;28;19918;-89
2023/12/28 09:23:00;;;;;;;;;;;;;;;10.72;100.00;99792.25;4973237;28;20361;-84
2023/12/28 09:25:25;;;;;;;;;;;;;;;7.73;100.00;99819.94;4954753;28;19918;-87
2023/12/28 09:27:50;;;;;;;;;;;;;;;6.53;100.00;99828.56;4955156;28;19918;-87
2023/12/28 09:30:16;;;;;;;;;;;;;;;6.06;100.00;99820.06;4971568;28;19966;-86
2023/12/28 09:32:41;;;;;;;;;;;;;;;5.90;100.00;99824.78;4973108;28;19922;-86
2023/12/28 09:35:06;;;;;;;;;;;;;;;5.78;100.00;99831.22;4973018;28;20013;-90
2023/12/28 09:37:32;;;;;;;;;;;;;;;5.67;100.00;99835.84;4955014;28;19918;-86
2023/12/28 09:39:58;;;;;;;;;;;;;;;5.64;100.00;99842.03;4972972;28;19929;-84
2023/12/28 09:42:26;;;;;;;;;;;;;;;5.64;100.00;99842.03;4972831;28;19941;-85
2023/12/28 09:44:51;;;;;;;;;;;;;;;5.57;100.00;99846.56;4972428;28;19972;-82
2023/12/28 09:47:17;;;;;;;;;;;;;;;5.49;100.00;99848.47;4972027;28;19965;-86
2023/12/28 09:49:43;;;;;;;;;;;;;;;5.53;100.00;99855.38;4972574;28;19918;-85
2023/12/28 09:52:09;;;;;;;;;;;;;;;5.52;100.00;99852.78;4972798;28;19926;-84
2023/12/28 09:54:34;;;;;;;;;;;;;;;5.45;100.00;99837.16;4972824;28;19972;-90
2023/12/28 09:57:00;;;;;;;;;;;;;;;5.41;100.00;99846.00;4972797;28;19925;-90
2023/12/28 09:59:26;;;;;;;;;;;;;;;5.37;100.00;99848.72;4972679;28;20064;-88
2023/12/28 10:01:53;;;;;;;;;;;;;;;5.36;100.00;99847.88;4953988;28;19926;-89
2023/12/28 10:04:19;;;;;;;;;;;;;;;5.37;100.00;99841.69;4972713;28;19922;-87
2023/12/28 10:06:45;;;;;;;;;;;;;;;5.34;100.00;99839.13;4972367;28;19925;-85
2023/12/28 10:09:10;;;;;;;;;;;;;;;5.36;100.00;99842.63;4973353;28;19997;-87
2023/12/28 10:11:36;;;;;;;;;;;;;;;5.36;100.00;99831.22;4976127;28;19918;-87
2023/12/28 10:14:02;;;;;;;;;;;;;;;5.39;100.00;99829.41;4976133;28;20377;-89
2023/12/28 10:16:30;;;;;;;;;;;;;;;5.41;100.00;99824.13;4973246;28;20381;-90
2023/12/28 10:18:55;;;;;;;;;;;;;;;5.34;100.00;99817.25;4958826;28;20017;-87
2023/12/28 10:21:23;;;;;;;;;;;;;;;5.31;100.00;99817.31;4975931;28;20004;-86
2023/12/28 10:23:48;;;;;;;;;;;;;;;5.35;100.00;99817.22;4974243;28;19922;-86
2023/12/28 10:26:13;;;;;;;;;;;;;;;5.35;100.00;99813.75;4958675;28;20329;-84
2023/12/28 10:28:39;;;;;;;;;;;;;;;5.32;100.00;99816.44;4975620;28;19925;-86
2023/12/28 10:31:05;;;;;;;;;;;;;;;5.30;100.00;99808.59;4974616;28;20325;-88
2023/12/28 10:33:36;;;;;;;;;;;;;;;5.30;100.00;99810.31;4975817;28;20289;-88
2023/12/28 10:36:05;;;;;;;;;;;;;;;5.27;100.00;99809.50;4974916;28;19971;-89
2023/12/28 10:38:34;;;;;;;;;;;;;;;5.33;100.00;99807.63;4974425;28;19918;-87
2023/12/28 10:40:59;;;;;;;;;;;;;;;5.28;100.00;99803.34;4973931;28;19918;-90
2023/12/28 10:43:25;;;;;;;;;;;;;;;5.25;100.00;99800.78;4975442;28;19926;-89
2023/12/28 10:45:52;;;;;;;;;;;;;;;5.28;100.00;99798.09;4974339;28;19972;-88
2023/12/28 10:48:21;;;;;;;;;;;;;;;5.26;100.00;99793.78;4975545;28;19961;-88
2023/12/28 10:50:49;;;;;;;;;;;;;;;5.27;100.00;99799.00;4975249;28;20420;-85
2023/12/28 10:53:32;;;;;;;;;;;;;;;5.32;100.00;99796.28;4975507;28;20284;-85
2023/12/28 10:56:08;;;;;;;;;;;;;;;5.23;100.00;99794.72;4975357;28;19918;-84
2023/12/28 10:58:56;;;;;;;;;;;;;;;5.22;100.00;99795.59;4974482;28;20419;-86
2023/12/28 11:01:24;;;;;;;;;;;;;;;5.22;100.00;99779.84;4925033;28;19918;-86
2023/12/28 11:03:59;;;;;;;;;;;;;;;5.23;100.00;99786.84;4975329;28;20020;-88
2023/12/28 11:06:26;;;;;;;;;;;;;;;5.20;100.00;99780.75;4974324;28;19929;-85
2023/12/28 11:08:53;;;;;;;;;;;;;;;5.19;100.00;99782.53;4973605;28;19922;-84
2023/12/28 11:11:19;;;;;;;;;;;;;;;5.16;100.00;99782.59;4975298;28;20281;-84
2023/12/28 11:13:45;;;;;;;;;;;;;;;5.15;100.00;99775.59;4974912;28;19933;-86
2023/12/28 11:16:11;;;;;;;;;;;;;;;5.20;100.00;99779.03;4973754;28;19919;-86
2023/12/28 11:18:36;;;;;;;;;;;;;;;5.18;100.00;99765.03;4974772;28;19944;-92
2023/12/28 11:21:01;;;;;;;;;;;;;;;5.19;100.00;99771.16;4975203;28;19973;-85
2023/12/28 11:23:28;;;;;;;;;;;;;;;5.17;100.00;99773.81;4974782;28;19922;-85
2023/12/28 11:25:53;;;;;;;;;;;;;;;5.21;100.00;99778.09;4973415;28;19918;-85
2023/12/28 11:28:19;;;;;;;;;;;;;;;5.15;100.00;99770.34;4957417;28;19918;-85
2023/12/28 11:30:46;;;;;;;;;;;;;;;5.16;100.00;99779.97;4973430;28;19926;-85
2023/12/28 11:33:12;;;;;;;;;;;;;;;5.18;100.00;99774.69;4974665;28;19918;-85
2023/12/28 11:35:40;;;;;;;;;;;;;;;5.16;100.00;99772.09;4974618;28;19989;-85
2023/12/28 11:38:09;;;;;;;;;;;;;;;5.13;100.00;99772.16;4973556;28;19922;-84
2023/12/28 11:40:42;;;;;;;;;;;;;;;5.13;100.00;99771.28;4974546;28;19958;-87
2023/12/28 11:43:14;;;;;;;;;;;;;;;5.20;100.00;99772.88;4973679;28;19965;-85
2023/12/28 11:45:46;;;;;;;;;;;;;;;5.19;100.00;99764.13;4955536;28;19918;-85
2023/12/28 11:48:21;;;;;;;;;;;;;;;5.19;100.00;99766.75;4974388;28;20057;-85
2023/12/28 11:50:47;;;;;;;;;;;;;;;5.22;100.00;99758.81;4973346;28;19961;-85
2023/12/28 11:53:12;;;;;;;;;;;;;;;5.23;100.00;99757.94;4974279;28;19996;-89
2023/12/28 11:55:37;;;;;;;;;;;;;;;5.23;100.00;99747.44;4974344;28;19969;-87
2023/12/28 11:58:02;;;;;;;;;;;;;;;5.33;100.00;99745.47;4974327;28;20365;-85
2023/12/28 12:00:28;;;;;;;;;;;;;;;5.49;100.00;99751.25;4972691;28;19940;-81
2023/12/28 12:02:55;;;;;;;;;;;;;;;5.46;100.00;99746.91;4973942;28;20393;-85
2023/12/28 12:05:20;;;;;;;;;;;;;;;5.51;100.00;99738.06;4974143;28;19922;-80
2023/12/28 12:07:45;;;;;;;;;;;;;;;5.53;100.00;99742.38;4972403;28;20005;-84
2023/12/28 12:10:21;;;;;;;;;;;;;;;5.33;100.00;99744.56;4956741;28;20381;-84
2023/12/28 12:12:47;;;;;;;;;;;;;;;5.22;100.00;99747.47;4954950;28;20300;-83
2023/12/28 12:15:12;;;;;;;;;;;;;;;5.40;100.00;99751.44;4955263;28;20029;-85
2023/12/28 12:17:38;;;;;;;;;;;;;;;5.38;100.00;99750.63;4956598;28;20098;-84
2023/12/28 12:20:03;;;;;;;;;;;;;;;5.34;100.00;99748.94;4973763;28;19941;-85
2023/12/28 12:22:29;;;;;;;;;;;;;;;5.33;100.00;99739.31;4956484;28;19922;-85
2023/12/28 12:24:56;;;;;;;;;;;;;;;5.30;100.00;99742.00;4956357;28;19922;-85
2023/12/28 12:27:21;;;;;;;;;;;;;;;5.62;100.00;99733.41;4956504;28;19918;-86
2023/12/28 12:29:46;;;;;;;;;;;;;;;5.27;100.00;99737.72;4973584;28;19941;-87
2023/12/28 12:32:11;;;;;;;;;;;;;;;5.38;100.00;99740.97;4972082;28;19922;-83
2023/12/28 12:34:38;;;;;;;;;;;;;;;5.34;100.00;99734.03;4973625;28;20321;-87
2023/12/28 12:37:03;;;;;;;;;;;;;;;5.48;100.00;99732.88;4956289;28;19925;-87
2023/12/28 12:39:29;;;;;;;;;;;;;;;5.41;100.00;99725.13;4973552;28;20500;-85
2023/12/28 12:41:56;;;;;;;;;;;;;;;5.44;100.00;99724.16;4973144;28;20377;-86
2023/12/28 12:44:22;;;;;;;;;;;;;;;5.35;100.00;99729.66;4973427;28;20270;-85
2023/12/28 12:46:47;;;;;;;;;;;;;;;5.40;100.00;99726.00;4954725;28;19942;-85
2023/12/28 12:49:13;;;;;;;;;;;;;;;5.75;100.00;99715.59;4973513;28;19918;-84
2023/12/28 12:51:38;;;;;;;;;;;;;;;5.49;100.00;99718.81;4973348;28;19918;-85
2023/12/28 12:54:04;;;;;;;;;;;;;;;5.51;100.00;99720.53;4955925;28;19922;-87
2023/12/28 12:56:29;;;;;;;;;;;;;;;5.70;100.00;99709.59;4973445;28;20281;-85
2023/12/28 12:58:56;;;;;;;;;;;;;;;5.61;100.00;99713.28;4973146;28;19944;-85
2023/12/28 13:01:21;;;;;;;;;;;;;;;5.73;100.00;99709.50;4971925;28;19922;-84
2023/12/28 13:03:47;;;;;;;;;;;;;;;5.64;100.00;99707.94;4973037;28;19925;-84
2023/12/28 13:06:12;;;;;;;;;;;;;;;5.38;100.00;99706.81;4973254;28;20369;-84
2023/12/28 13:08:37;;;;;;;;;;;;;;;5.52;100.00;99706.50;4973104;28;20301;-85
2023/12/28 13:11:03;;;;;;;;;;;;;;;5.44;100.00;99709.28;4973213;28;19977;-84
2023/12/28 13:13:28;;;;;;;;;;;;;;;5.34;100.00;99722.66;4972521;28;19914;-84
2023/12/28 13:15:56;;;;;;;;;;;;;;;5.38;100.00;99709.44;4971676;28;19926;-85
2023/12/28 13:18:22;;;;;;;;;;;;;;;5.54;100.00;99709.09;4971723;28;19922;-87
2023/12/28 13:20:47;;;;;;;;;;;;;;;5.58;100.00;99708.94;4972942;28;20001;-85
2023/12/28 13:23:12;;;;;;;;;;;;;;;5.33;100.00;99707.78;4973164;28;19922;-85
2023/12/28 13:25:38;;;;;;;;;;;;;;;5.47;100.00;99708.34;4972992;28;19945;-85
2023/12/28 13:28:03;;;;;;;;;;;;;;;5.56;100.00;99709.91;4972925;28;19929;-85
2023/12/28 13:30:29;;;;;;;;;;;;;;;5.39;100.00;99703.28;4971808;28;19928;-85
2023/12/28 13:32:56;;;;;;;;;;;;;;;5.49;100.00;99697.78;4972959;28;20017;-84
2023/12/28 13:35:21;;;;;;;;;;;;;;;5.44;100.00;99701.41;4972957;28;19986;-85
2023/12/28 13:37:47;;;;;;;;;;;;;;;5.63;100.00;99708.84;4972982;28;19922;-85
2023/12/28 13:40:12;;;;;;;;;;;;;;;5.59;100.00;99702.81;4972855;28;19922;-84
2023/12/28 13:42:37;;;;;;;;;;;;;;;5.32;100.00;99704.31;4972698;28;19922;-85
2023/12/28 13:45:03;;;;;;;;;;;;;;;6.54;100.00;99699.53;4974177;28;19918;-88
2023/12/28 13:47:29;;;;;;;;;;;;;;;5.85;100.00;99703.94;4976524;28;19918;-88
2023/12/28 13:49:55;;;;;;;;;;;;;;;5.51;100.00;99704.75;4976689;28;20274;-85
2023/12/28 13:52:20;;;;;;;;;;;;;;;5.56;100.00;99704.66;4976676;28;20314;-93
2023/12/28 13:54:46;;;;;;;;;;;;;;;5.50;100.00;99708.28;4976567;28;20030;-86
2023/12/28 13:57:11;;;;;;;;;;;;;;;5.58;100.00;99701.06;4976384;28;20362;-88
2023/12/28 13:59:36;;;;;;;;;;;;;;;5.43;100.00;99709.31;4976612;28;19929;-92
2023/12/28 14:02:03;;;;;;;;;;;;;;;5.50;100.00;99705.63;4974657;28;19928;-86
2023/12/28 14:04:28;;;;;;;;;;;;;;;6.85;100.00;99703.94;4977319;28;20064;-85
2023/12/28 14:06:54;;;;;;;;;;;;;;;5.92;100.00;99705.53;4976179;28;20597;-90
2023/12/28 14:09:28;;;;;;;;;;;;;;;5.79;100.00;99699.69;4977106;28;19928;-93
2023/12/28 14:11:53;;;;;;;;;;;;;;;5.72;100.00;99694.63;4959397;28;19929;-87
2023/12/28 14:14:20;;;;;;;;;;;;;;;5.72;100.00;99699.88;4976279;28;19944;-85
2023/12/28 14:16:45;;;;;;;;;;;;;;;5.77;100.00;99705.88;4956018;28;19918;-88
2023/12/28 14:19:11;;;;;;;;;;;;;;;5.69;100.00;99702.59;4958695;28;20473;-87
2023/12/28 14:21:36;;;;;;;;;;;;;;;5.45;100.00;99705.75;4958697;28;20017;-86
2023/12/28 14:24:02;;;;;;;;;;;;;;;5.54;100.00;99709.09;4958503;28;19989;-90
2023/12/28 14:26:28;;;;;;;;;;;;;;;5.70;100.00;99704.31;4975896;28;19926;-89
2023/12/28 14:28:53;;;;;;;;;;;;;;;5.65;100.00;99701.81;4976000;28;19921;-87
2023/12/28 14:31:19;;;;;;;;;;;;;;;5.56;100.00;99699.38;4957477;28;19969;-89
2023/12/28 14:33:44;;;;;;;;;;;;;;;5.95;100.00;99700.19;4975337;28;20320;-84
2023/12/28 14:36:24;;;;;;;;;;;;;;;5.52;100.00;99698.59;4958462;28;20399;-86
2023/12/28 14:38:49;;;;;;;;;;;;;;;5.67;100.00;99705.25;4958206;28;19918;-85
2023/12/28 14:41:17;;;;;;;;;;;;;;;5.75;100.00;99695.41;4958493;28;20373;-88
2023/12/28 14:43:42;;;;;;;;;;;;;;;5.60;100.00;99695.78;4958279;28;20426;-93
2023/12/28 14:46:07;;;;;;;;;;;;;;;5.73;100.00;99704.25;4974794;28;20020;-89
2023/12/28 14:48:33;;;;;;;;;;;;;;;5.56;100.00;99708.13;4975405;28;19925;-88
2023/12/28 14:50:58;;;;;;;;;;;;;;;5.50;100.00;99712.66;4975638;28;19926;-86
2023/12/28 14:53:25;;;;;;;;;;;;;;;5.68;100.00;99712.25;4975275;28;19918;-89
2023/12/28 14:55:51;;;;;;;;;;;;;;;5.79;100.00;99698.81;4974956;28;19929;-89
2023/12/28 14:58:18;;;;;;;;;;;;;;;5.74;100.00;99701.56;4975292;28;20289;-89
2023/12/28 15:00:44;;;;;;;;;;;;;;;5.53;100.00;99702.94;4956687;28;20332;-89
2023/12/28 15:03:09;;;;;;;;;;;;;;;5.61;100.00;99705.41;4975638;28;19925;-90
2023/12/28 15:05:35;;;;;;;;;;;;;;;5.85;100.00;99703.94;4975346;28;19944;-87
2023/12/28 15:08:00;;;;;;;;;;;;;;;5.86;100.00;99704.81;4975031;28;19929;-86
2023/12/28 15:10:25;;;;;;;;;;;;;;;6.09;100.00;99707.72;4974940;28;19993;-86
2023/12/28 15:12:51;;;;;;;;;;;;;;;6.14;100.00;99712.88;4975104;28;19997;-88
2023/12/28 15:15:16;;;;;;;;;;;;;;;6.03;100.00;99697.41;4973595;28;19918;-87
2023/12/28 15:17:42;;;;;;;;;;;;;;;5.81;100.00;99707.56;4975000;28;19918;-87
2023/12/28 15:20:08;;;;;;;;;;;;;;;6.03;100.00;99699.16;4974452;28;19965;-90
2023/12/28 15:22:33;;;;;;;;;;;;;;;5.96;100.00;99696.66;4974915;28;19964;-88
2023/12/28 15:25:00;;;;;;;;;;;;;;;5.92;100.00;99699.38;4974743;28;19994;-85
2023/12/28 15:27:25;;;;;;;;;;;;;;;6.12;100.00;99693.66;4957435;28;19964;-86
2023/12/28 15:29:50;;;;;;;;;;;;;;;6.05;100.00;99692.06;4974811;28;20342;-87
2023/12/28 15:32:15;;;;;;;;;;;;;;;6.09;100.00;99691.09;4973380;28;19925;-85
2023/12/28 15:34:41;;;;;;;;;;;;;;;6.24;100.00;99690.72;4974833;28;19932;-87
2023/12/28 15:37:06;;;;;;;;;;;;;;;5.90;100.00;99678.38;4974604;28;20005;-84
2023/12/28 15:39:31;;;;;;;;;;;;;;;6.04;100.00;99671.94;4972929;28;19978;-87
2023/12/28 15:42:04;;;;;;;;;;;;;;;6.04;100.00;99674.56;4957053;28;19961;-88
2023/12/28 15:44:29;;;;;;;;;;;;;;;5.98;100.00;99672.97;4974538;28;20001;-89
2023/12/28 15:46:54;;;;;;;;;;;;;;;6.05;100.00;99673.66;4973148;28;20026;-87
2023/12/28 15:49:19;;;;;;;;;;;;;;;5.98;100.00;99678.22;4973873;28;19946;-87
2023/12/28 15:51:45;;;;;;;;;;;;;;;6.08;100.00;99673.56;4974741;28;19976;-91
2023/12/28 15:54:10;;;;;;;;;;;;;;;6.16;100.00;99671.63;4956949;28;19918;-88
2023/12/28 15:56:35;;;;;;;;;;;;;;;5.96;100.00;99666.84;4974232;28;19919;-92
2023/12/28 15:59:00;;;;;;;;;;;;;;;6.04;100.00;99661.44;4974363;28;19918;-89
2023/12/28 16:01:26;;;;;;;;;;;;;;;6.04;100.00;99671.94;4972797;28;20374;-89
2023/12/28 16:04:00;;;;;;;;;;;;;;;6.03;100.00;99664.94;4974092;28;20289;-89
2023/12/28 16:06:25;;;;;;;;;;;;;;;6.11;100.00;99663.84;4963444;28;19928;-86
2023/12/28 16:08:50;;;;;;;;;;;;;;;6.10;100.00;99669.16;4973600;28;20012;-87
2023/12/28 16:11:16;;;;;;;;;;;;;;;6.15;100.00;99665.47;4973913;28;19929;-87
2023/12/28 16:13:42;;;;;;;;;;;;;;;6.10;100.00;99666.53;4956697;28;19918;-87
2023/12/28 16:16:09;;;;;;;;;;;;;;;6.26;100.00;99661.72;4972608;28;19922;-93
2023/12/28 16:18:35;;;;;;;;;;;;;;;6.31;100.00;99676.47;4972491;28;19922;-86
2023/12/28 16:21:00;;;;;;;;;;;;;;;6.53;100.00;99668.00;4973674;28;19925;-85
2023/12/28 16:23:25;;;;;;;;;;;;;;;6.58;100.00;99673.13;4973889;28;19937;-87
2023/12/28 16:25:51;;;;;;;;;;;;;;;6.53;100.00;99676.75;4973794;28;19940;-83
2023/12/28 16:28:16;;;;;;;;;;;;;;;6.48;100.00;99681.28;4973720;28;19925;-79
2023/12/28 16:30:41;;;;;;;;;;;;;;;6.14;100.00;99689.19;4972047;28;19918;-86
2023/12/28 16:33:06;;;;;;;;;;;;;;;6.55;100.00;99682.81;4973720;28;19922;-88
2023/12/28 16:35:32;;;;;;;;;;;;;;;6.40;100.00;99674.47;4973764;28;19973;-85
2023/12/28 16:37:57;;;;;;;;;;;;;;;6.43;100.00;99671.75;4973496;28;20284;-87
2023/12/28 16:40:22;;;;;;;;;;;;;;;6.24;100.00;99680.19;4973429;28;19922;-87
2023/12/28 16:42:48;;;;;;;;;;;;;;;6.26;100.00;99682.78;4973518;28;19922;-86
2023/12/28 16:45:14;;;;;;;;;;;;;;;6.34;100.00;99686.91;4972090;28;20396;-83
2023/12/28 16:47:56;;;;;;;;;;;;;;;6.13;100.00;99679.59;4973279;28;20249;-89
2023/12/28 16:50:24;;;;;;;;;;;;;;;6.28;100.00;99684.44;4973071;28;19976;-86
2023/12/28 16:52:49;;;;;;;;;;;;;;;6.24;100.00;99682.81;4973377;28;20394;-86
2023/12/28 16:55:14;;;;;;;;;;;;;;;6.24;100.00;99674.91;4972821;28;19980;-85
2023/12/28 16:57:39;;;;;;;;;;;;;;;6.30;100.00;99674.75;4956078;28;19918;-85
2023/12/28 17:00:05;;;;;;;;;;;;;;;6.20;100.00;99672.41;4972373;28;19973;-87
2023/12/28 17:02:30;;;;;;;;;;;;;;;6.34;100.00;99681.66;4972934;28;19926;-86
2023/12/28 17:04:56;;;;;;;;;;;;;;;6.50;100.00;99675.97;4973104;28;19925;-87
2023/12/28 17:07:21;;;;;;;;;;;;;;;6.28;100.00;99673.91;4956010;28;19918;-86
2023/12/28 17:09:47;;;;;;;;;;;;;;;6.31;100.00;99672.97;4973448;28;19918;-84
2023/12/28 17:12:25;;;;;;;;;;;;;;;6.36;100.00;99674.56;4972452;28;19918;-89
2023/12/28 17:14:50;;;;;;;;;;;;;;;6.28;100.00;99671.28;4973266;28;19922;-87
2023/12/28 17:17:16;;;;;;;;;;;;;;;6.30;100.00;99672.13;4953867;28;19918;-84
2023/12/28 17:19:41;;;;;;;;;;;;;;;6.33;100.00;99664.16;4976098;28;19922;-86
2023/12/28 17:22:07;;;;;;;;;;;;;;;6.31;100.00;99671.19;4976897;28;20053;-87
2023/12/28 17:24:45;;;;;;;;;;;;;;;6.46;100.00;99669.94;4959792;28;19918;-87
2023/12/28 17:27:13;;;;;;;;;;;;;;;6.28;100.00;99665.16;4977056;28;19918;-85
2023/12/28 17:29:40;;;;;;;;;;;;;;;6.16;100.00;99669.00;4976985;28;20316;-85
2023/12/28 17:32:09;;;;;;;;;;;;;;;6.22;100.00;99663.53;4958074;28;19972;-84
2023/12/28 17:34:34;;;;;;;;;;;;;;;6.17;100.00;99668.06;4976856;28;20369;-86
2023/12/28 17:37:00;;;;;;;;;;;;;;;6.31;100.00;99670.34;4975162;28;19925;-88
2023/12/28 17:39:25;;;;;;;;;;;;;;;6.28;100.00;99681.81;4976560;28;20397;-84
2023/12/28 17:41:51;;;;;;;;;;;;;;;6.26;100.00;99682.78;4976613;28;19925;-86
2023/12/28 17:44:28;;;;;;;;;;;;;;;6.27;100.00;99684.47;4976600;28;19970;-88
2023/12/28 17:46:53;;;;;;;;;;;;;;;6.36;100.00;99689.50;4974314;28;19922;-86
2023/12/28 17:49:28;;;;;;;;;;;;;;;6.29;100.00;99688.81;4976703;28;20297;-88
2023/12/28 17:51:55;;;;;;;;;;;;;;;6.43;100.00;99685.81;4976056;28;19976;-90
2023/12/28 17:54:20;;;;;;;;;;;;;;;6.39;100.00;99673.63;4976856;28;19926;-91
2023/12/28 17:56:45;;;;;;;;;;;;;;;6.37;100.00;99678.06;4976444;28;19922;-85
2023/12/28 17:59:13;;;;;;;;;;;;;;;6.31;100.00;99681.72;4974685;28;19918;-88
2023/12/28 18:01:42;;;;;;;;;;;;;;;6.50;100.00;99670.72;4973427;28;19962;-95
2023/12/28 18:04:07;;;;;;;;;;;;;;;6.31;100.00;99672.97;4956474;28;20016;-92
2023/12/28 18:06:35;;;;;;;;;;;;;;;6.34;100.00;99675.53;4977569;28;19973;-87
2023/12/28 18:09:00;;;;;;;;;;;;;;;6.46;100.00;99679.56;4975195;28;20362;-86
2023/12/28 18:11:26;;;;;;;;;;;;;;;6.60;100.00;99679.19;4975277;28;19969;-89
2023/12/28 18:13:51;;;;;;;;;;;;;;;6.34;100.00;99680.78;4974849;28;19922;-87
2023/12/28 18:16:21;;;;;;;;;;;;;;;6.33;100.00;99684.31;4970572;28;20374;-89
2023/12/28 18:18:49;;;;;;;;;;;;;;;6.34;100.00;99671.13;4975435;28;19964;-84
2023/12/28 18:21:15;;;;;;;;;;;;;;;6.47;100.00;99676.06;4974753;28;20295;-88
2023/12/28 18:23:40;;;;;;;;;;;;;;;6.32;100.00;99677.34;4958493;28;20001;-85
2023/12/28 18:26:06;;;;;;;;;;;;;;;6.45;100.00;99677.88;4976344;28;19961;-87
2023/12/28 18:28:35;;;;;;;;;;;;;;;6.41;100.00;99674.44;4974195;28;19929;-93
2023/12/28 18:31:01;;;;;;;;;;;;;;;6.48;100.00;99678.66;4952306;28;19937;-92
2023/12/28 18:33:26;;;;;;;;;;;;;;;6.47;100.00;99676.06;4974253;28;19922;-87
2023/12/28 18:35:52;;;;;;;;;;;;;;;6.45;100.00;99669.97;4975034;28;19918;-85
2023/12/28 18:38:18;;;;;;;;;;;;;;;6.47;100.00;99673.41;4975740;28;19929;-90
2023/12/28 18:40:46;;;;;;;;;;;;;;;9.41;100.00;99670.59;4976577;28;20005;-92
2023/12/28 18:43:20;;;;;;;;;;;;;;;7.54;100.00;99669.31;4974019;28;19922;-90
2023/12/28 18:45:48;;;;;;;;;;;;;;;6.90;100.00;99665.13;4971673;28;19922;-90
2023/12/28 18:48:14;;;;;;;;;;;;;;;6.72;100.00;99657.78;4956799;28;19946;-87
2023/12/28 18:50:40;;;;;;;;;;;;;;;6.65;100.00;99653.59;4956836;28;20415;-87
2023/12/28 18:53:05;;;;;;;;;;;;;;;6.63;100.00;99653.63;4958283;28;19929;-90
2023/12/28 18:55:31;;;;;;;;;;;;;;;6.50;100.00;99675.97;4975490;28;19925;-90
2023/12/28 18:57:56;;;;;;;;;;;;;;;6.67;100.00;99663.19;4956145;28;19922;-91
2023/12/28 19:00:21;;;;;;;;;;;;;;;6.82;100.00;99667.13;4955426;28;19918;-94
2023/12/28 19:02:47;;;;;;;;;;;;;;;6.92;100.00;99680.91;4975284;28;19922;-90
2023/12/28 19:05:13;;;;;;;;;;;;;;;6.81;100.00;99675.97;4972698;28;19982;-87
2023/12/28 19:07:38;;;;;;;;;;;;;;;6.65;100.00;99674.66;4972389;28;19926;-88
2023/12/28 19:10:06;;;;;;;;;;;;;;;9.93;100.00;99670.25;4954788;28;20105;-87
2023/12/28 19:12:34;;;;;;;;;;;;;;;7.76;100.00;99677.41;4951787;28;20337;-92
2023/12/28 19:14:59;;;;;;;;;;;;;;;7.09;100.00;99681.25;4955092;28;19926;-86
2023/12/28 19:17:24;;;;;;;;;;;;;;;6.91;100.00;99679.19;4970048;28;19926;-86
2023/12/28 19:19:57;;;;;;;;;;;;;;;6.94;100.00;99687.00;4971631;28;20005;-87
2023/12/28 19:22:22;;;;;;;;;;;;;;;7.00;100.00;99688.56;4939069;29;19922;-89
2023/12/28 19:24:48;;;;;;;;;;;;;;;6.85;100.00;99687.25;4942658;29;20325;-85
2023/12/28 19:27:15;;;;;;;;;;;;;;;6.77;100.00;99678.72;4942121;29;19927;-86
2023/12/28 19:29:41;;;;;;;;;;;;;;;6.81;100.00;99680.34;4942866;29;19926;-94
2023/12/28 19:32:13;;;;;;;;;;;;;;;6.77;100.00;99679.59;4943826;29;19918;-89
2023/12/28 19:34:39;;;;;;;;;;;;;;;6.65;100.00;99679.94;4943814;29;20409;-92
2023/12/28 19:37:06;;;;;;;;;;;;;;;6.52;100.00;99684.69;4944456;28;19969;-90
2023/12/28 19:39:31;;;;;;;;;;;;;;;6.72;100.00;99678.88;4942898;29;19927;-89
2023/12/28 19:42:00;;;;;;;;;;;;;;;6.80;100.00;99673.38;4943197;28;19918;-93
2023/12/28 19:44:25;;;;;;;;;;;;;;;6.71;100.00;99666.59;4927766;29;19935;-87
2023/12/28 19:46:50;;;;;;;;;;;;;;;6.75;100.00;99664.72;4957378;28;19922;-87
2023/12/28 19:49:15;;;;;;;;;;;;;;;6.70;100.00;99664.84;4972027;28;19930;-89
2023/12/28 19:51:41;;;;;;;;;;;;;;;6.79;100.00;99666.38;4973894;28;19922;-87
2023/12/28 19:54:06;;;;;;;;;;;;;;;6.63;100.00;99666.81;4954235;28;19938;-85
2023/12/28 19:56:31;;;;;;;;;;;;;;;6.36;100.00;99653.50;4970415;28;19929;-87
2023/12/28 19:58:57;;;;;;;;;;;;;;;6.41;100.00;99655.16;4973890;28;19919;-87
2023/12/28 20:01:22;;;;;;;;;;;;;;;6.21;100.00;99664.47;4953545;28;20290;-86
2023/12/28 20:03:47;;;;;;;;;;;;;;;6.20;100.00;99662.72;4962732;28;20277;-84
2023/12/28 20:06:14;;;;;;;;;;;;;;;6.35;100.00;99659.69;4954926;28;20959;-86